createdAt,value
2018-09-22T00:00:33.701Z,0.70
2018-09-22T00:03:02.177Z,0.90
2018-09-22T00:05:30.291Z,0.70
2018-09-22T00:07:58.704Z,0.68
2018-09-22T00:10:27.134Z,0.75
2018-09-22T00:12:55.547Z,0.60
2018-09-22T00:15:23.940Z,0.72
2018-09-22T00:17:52.352Z,0.70
2018-09-22T00:20:20.761Z,0.72
2018-09-22T00:22:49.172Z,0.68
2018-09-22T00:25:17.581Z,0.78
2018-09-22T00:27:45.976Z,0.95
2018-09-22T00:30:14.409Z,0.50
2018-09-22T00:32:42.543Z,1.55
2018-09-22T00:35:11.059Z,0.90
2018-09-22T00:37:39.144Z,0.47
2018-09-22T00:40:07.617Z,0.40
2018-09-22T00:42:36.012Z,0.55
2018-09-22T00:45:04.530Z,0.40
2018-09-22T00:47:32.924Z,0.70
2018-09-22T00:50:01.345Z,0.68
2018-09-22T00:52:29.744Z,0.50
2018-09-22T00:54:58.161Z,0.50
2018-09-22T00:57:26.581Z,0.37
2018-09-22T00:59:55.021Z,0.50
2018-09-22T01:02:23.693Z,0.53
2018-09-22T01:04:52.158Z,0.88
2018-09-22T01:07:20.649Z,0.50
2018-09-22T01:09:49.118Z,0.70
2018-09-22T01:12:17.207Z,0.55
2018-09-22T01:14:45.350Z,0.57
2018-09-22T01:17:13.752Z,1.00
2018-09-22T01:19:42.189Z,0.98
2018-09-22T01:22:10.604Z,0.60
2018-09-22T01:24:39.000Z,0.42
2018-09-22T01:27:07.407Z,0.70
2018-09-22T01:29:35.828Z,0.70
2018-09-22T01:32:04.293Z,0.60
2018-09-22T01:34:32.750Z,0.50
2018-09-22T01:37:01.173Z,0.40
2018-09-22T01:39:29.611Z,0.50
2018-09-22T01:41:58.017Z,0.53
2018-09-22T01:44:26.471Z,0.70
2018-09-22T01:46:54.881Z,1.10
2018-09-22T01:49:23.318Z,0.70
2018-09-22T01:51:51.391Z,0.75
2018-09-22T01:54:19.813Z,0.60
2018-09-22T01:56:48.217Z,0.40
2018-09-22T01:59:16.661Z,0.57
2018-09-22T02:01:45.121Z,0.42
2018-09-22T02:04:13.529Z,0.60
2018-09-22T02:06:41.956Z,0.60
2018-09-22T02:09:11.089Z,0.85
2018-09-22T02:11:39.565Z,0.60
2018-09-22T02:14:08.013Z,0.57
2018-09-22T02:16:36.453Z,0.57
2018-09-22T02:19:05.136Z,0.57
2018-09-22T02:21:33.561Z,0.60
2018-09-22T02:24:01.938Z,0.75
2018-09-22T02:26:30.368Z,0.50
2018-09-22T02:28:58.829Z,0.55
2018-09-22T02:31:27.249Z,0.60
2018-09-22T02:33:55.641Z,0.55
2018-09-22T02:36:24.065Z,0.60
2018-09-22T02:38:52.473Z,0.50
2018-09-22T02:41:20.881Z,0.50
2018-09-22T02:43:49.301Z,0.50
2018-09-22T02:46:17.880Z,0.55
2018-09-22T02:48:46.266Z,0.60
2018-09-22T02:51:14.741Z,0.57
2018-09-22T02:53:43.152Z,0.45
2018-09-22T02:56:11.266Z,0.47
2018-09-22T02:58:39.680Z,0.50
2018-09-22T03:01:08.168Z,0.80
2018-09-22T03:03:36.572Z,0.50
2018-09-22T03:06:04.994Z,1.10
2018-09-22T03:08:33.412Z,0.47
2018-09-22T03:11:02.008Z,0.45
2018-09-22T03:13:30.395Z,0.37
2018-09-22T03:15:58.802Z,0.50
2018-09-22T03:18:27.204Z,0.60
2018-09-22T03:20:55.678Z,0.57
2018-09-22T03:23:24.065Z,0.57
2018-09-22T03:25:52.200Z,0.70
2018-09-22T03:28:20.603Z,0.50
2018-09-22T03:30:49.075Z,0.57
2018-09-22T03:33:17.483Z,0.45
2018-09-22T03:35:45.912Z,0.50
2018-09-22T03:38:14.285Z,0.50
2018-09-22T03:40:42.733Z,0.60
2018-09-22T03:43:11.121Z,0.60
2018-09-22T03:45:39.638Z,0.50
2018-09-22T03:48:08.088Z,0.40
2018-09-22T03:50:36.492Z,0.57
2018-09-22T03:53:04.965Z,0.42
2018-09-22T03:55:33.457Z,0.42
2018-09-22T03:58:01.865Z,0.62
2018-09-22T04:00:30.285Z,0.50
2018-09-22T04:02:58.725Z,0.60
2018-09-22T04:05:27.144Z,0.30
2018-09-22T04:07:55.733Z,0.40
2018-09-22T04:10:24.167Z,0.60
2018-09-22T04:12:52.593Z,0.50
2018-09-22T04:15:21.076Z,0.50
2018-09-22T04:17:49.497Z,0.50
2018-09-22T04:20:18.062Z,0.50
2018-09-22T04:22:46.485Z,0.40
2018-09-22T04:25:14.878Z,0.80
2018-09-22T04:27:43.349Z,0.50
2018-09-22T04:30:11.757Z,0.40
2018-09-22T04:32:40.210Z,0.53
2018-09-22T04:35:08.640Z,0.62
2018-09-22T04:37:37.309Z,0.60
2018-09-22T04:40:06.022Z,0.60
2018-09-22T04:42:34.468Z,0.53
2018-09-22T04:45:02.906Z,0.50
2018-09-22T04:47:31.346Z,0.42
2018-09-22T04:49:59.772Z,0.40
2018-09-22T04:52:27.889Z,0.53
2018-09-22T04:54:56.288Z,0.40
2018-09-22T04:57:24.792Z,1.20
2018-09-22T04:59:53.504Z,0.53
2018-09-22T05:02:21.973Z,0.47
2018-09-22T05:04:50.432Z,0.50
2018-09-22T05:07:18.873Z,0.50
2018-09-22T05:09:46.984Z,0.50
2018-09-22T05:12:15.405Z,0.72
2018-09-22T05:14:43.818Z,0.88
2018-09-22T05:17:12.415Z,0.60
2018-09-22T05:19:40.548Z,0.70
2018-09-22T05:22:08.969Z,0.62
2018-09-22T05:24:37.372Z,0.42
2018-09-22T05:27:06.160Z,0.60
2018-09-22T05:29:34.592Z,0.40
2018-09-22T05:32:02.733Z,0.80
2018-09-22T05:34:30.803Z,0.78
2018-09-22T05:36:59.232Z,0.50
2018-09-22T05:39:27.643Z,1.20
2018-09-22T05:41:56.069Z,0.57
2018-09-22T05:44:24.489Z,0.45
2018-09-22T05:46:52.900Z,0.68
2018-09-22T05:49:21.348Z,0.40
2018-09-22T05:51:49.766Z,0.30
2018-09-22T05:54:18.180Z,0.60
2018-09-22T05:56:46.615Z,0.60
2018-09-22T05:59:15.083Z,0.50
2018-09-22T06:01:43.512Z,0.53
2018-09-22T06:04:11.932Z,0.80
2018-09-22T06:06:40.337Z,0.45
2018-09-22T06:09:09.897Z,0.30
2018-09-22T06:11:38.298Z,0.50
2018-09-22T06:14:06.771Z,0.80
2018-09-22T06:16:35.301Z,0.50
2018-09-22T06:19:03.768Z,0.68
2018-09-22T06:21:32.184Z,0.47
2018-09-22T06:24:00.604Z,0.50
2018-09-22T06:26:29.005Z,0.50
2018-09-22T06:28:57.492Z,0.65
2018-09-22T06:31:25.568Z,0.50
2018-09-22T06:33:54.021Z,0.47
2018-09-22T06:36:22.413Z,0.53
2018-09-22T06:38:51.031Z,0.50
2018-09-22T06:41:19.429Z,0.80
2018-09-22T06:43:48.085Z,0.42
2018-09-22T06:46:16.709Z,0.50
2018-09-22T06:48:45.160Z,0.60
2018-09-22T06:51:13.554Z,1.15
2018-09-22T06:53:42.219Z,0.50
2018-09-22T06:56:10.632Z,0.85
2018-09-22T06:58:39.070Z,0.50
2018-09-22T07:01:07.160Z,0.70
2018-09-22T07:03:35.299Z,1.10
2018-09-22T07:06:03.752Z,0.60
2018-09-22T07:08:32.189Z,0.50
2018-09-22T07:11:00.616Z,0.50
2018-09-22T07:13:29.213Z,0.47
2018-09-22T07:15:57.652Z,0.68
2018-09-22T07:18:26.098Z,0.60
2018-09-22T07:20:59.790Z,0.62
2018-09-22T07:23:28.250Z,0.50
2018-09-22T07:25:56.871Z,0.50
2018-09-22T07:28:25.281Z,0.57
2018-09-22T07:30:53.717Z,0.45
2018-09-22T07:33:22.157Z,0.62
2018-09-22T07:35:50.596Z,0.60
2018-09-22T07:38:19.117Z,0.53
2018-09-22T07:40:47.418Z,0.78
2018-09-22T07:43:15.826Z,0.57
2018-09-22T07:45:44.333Z,0.42
2018-09-22T07:48:12.452Z,0.70
2018-09-22T07:50:40.876Z,0.40
2018-09-22T07:53:08.984Z,0.42
2018-09-22T07:55:37.428Z,0.40
2018-09-22T07:58:06.536Z,0.20
2018-09-22T08:00:35.048Z,0.40
2018-09-22T08:03:03.436Z,0.55
2018-09-22T08:05:31.905Z,0.50
2018-09-22T08:08:00.336Z,0.50
2018-09-22T08:10:28.494Z,0.40
2018-09-22T08:12:56.940Z,0.72
2018-09-22T08:15:25.431Z,0.40
2018-09-22T08:17:53.868Z,0.50
2018-09-22T08:20:22.346Z,0.53
2018-09-22T08:22:50.748Z,0.45
2018-09-22T08:25:19.200Z,0.62
2018-09-22T08:27:47.609Z,0.20
2018-09-22T08:30:16.035Z,0.60
2018-09-22T08:32:44.459Z,0.80
2018-09-22T08:35:12.916Z,0.50
2018-09-22T08:37:41.328Z,0.40
2018-09-22T08:40:09.812Z,0.45
2018-09-22T08:42:38.463Z,0.40
2018-09-22T08:45:06.654Z,0.47
2018-09-22T08:47:35.645Z,0.30
2018-09-22T08:50:04.173Z,0.98
2018-09-22T08:52:32.593Z,0.88
2018-09-22T08:55:01.028Z,0.40
2018-09-22T08:57:29.455Z,0.45
2018-09-22T08:59:57.909Z,0.50
2018-09-22T09:02:26.523Z,0.40
2018-09-22T09:04:54.987Z,0.30
2018-09-22T09:07:23.420Z,0.28
2018-09-22T09:09:51.863Z,0.35
2018-09-22T09:12:20.060Z,0.50
2018-09-22T09:14:48.474Z,0.50
2018-09-22T09:17:16.912Z,0.40
2018-09-22T09:19:45.325Z,0.40
2018-09-22T09:22:13.744Z,0.50
2018-09-22T09:24:42.139Z,0.30
2018-09-22T09:27:10.588Z,0.30
2018-09-22T09:29:38.995Z,0.30
2018-09-22T09:32:07.658Z,0.40
2018-09-22T09:34:36.049Z,0.30
2018-09-22T09:37:05.547Z,0.40
2018-09-22T09:39:34.243Z,0.62
2018-09-22T09:42:02.774Z,0.33
2018-09-22T09:44:31.373Z,0.30
2018-09-22T09:46:59.524Z,0.30
2018-09-22T09:49:27.644Z,0.40
2018-09-22T09:51:56.134Z,0.30
2018-09-22T09:54:24.609Z,0.57
2018-09-22T09:56:53.288Z,0.40
2018-09-22T09:59:21.680Z,0.40
2018-09-22T10:01:50.463Z,0.20
2018-09-22T10:04:18.576Z,0.30
2018-09-22T10:06:46.997Z,0.30
2018-09-22T10:09:15.433Z,0.62
2018-09-22T10:11:43.851Z,0.60
2018-09-22T10:14:12.274Z,0.47
2018-09-22T10:16:40.392Z,0.37
2018-09-22T10:19:08.797Z,0.20
2018-09-22T10:21:37.241Z,0.40
2018-09-22T10:24:05.673Z,0.72
2018-09-22T10:26:34.116Z,0.60
2018-09-22T10:29:02.720Z,0.70
2018-09-22T10:31:31.179Z,0.47
2018-09-22T10:33:59.633Z,0.30
2018-09-22T10:36:28.116Z,0.40
2018-09-22T10:38:56.528Z,0.23
2018-09-22T10:41:24.997Z,0.40
2018-09-22T10:43:53.535Z,0.45
2018-09-22T10:46:22.024Z,0.30
2018-09-22T10:48:50.420Z,0.30
2018-09-22T10:51:18.853Z,0.28
2018-09-22T10:53:47.273Z,0.62
2018-09-22T10:56:15.492Z,0.40
2018-09-22T10:58:43.943Z,0.60
2018-09-22T11:01:12.369Z,0.30
2018-09-22T11:03:40.793Z,0.53
2018-09-22T11:06:09.192Z,0.20
2018-09-22T11:08:37.808Z,0.50
2018-09-22T11:11:06.316Z,0.30
2018-09-22T11:13:34.784Z,0.30
2018-09-22T11:16:03.220Z,0.40
2018-09-22T11:18:31.681Z,0.40
2018-09-22T11:21:00.123Z,0.37
2018-09-22T11:23:28.581Z,0.45
2018-09-22T11:25:57.008Z,0.40
2018-09-22T11:28:25.147Z,0.30
2018-09-22T11:30:53.564Z,0.35
2018-09-22T11:33:21.904Z,0.30
2018-09-22T11:35:50.343Z,0.50
2018-09-22T11:38:18.791Z,0.33
2018-09-22T11:40:47.238Z,0.37
2018-09-22T11:43:15.680Z,0.53
2018-09-22T11:45:44.088Z,0.50
2018-09-22T11:48:12.541Z,0.40
2018-09-22T11:50:41.149Z,0.68
2018-09-22T11:53:09.288Z,0.40
2018-09-22T11:55:37.709Z,0.40
2018-09-22T11:58:05.838Z,0.57
2018-09-22T12:00:34.290Z,0.50
2018-09-22T12:03:02.766Z,0.45
2018-09-22T12:05:31.168Z,0.50
2018-09-22T12:07:59.625Z,0.60
2018-09-22T12:10:27.733Z,0.40
2018-09-22T12:12:56.181Z,0.60
2018-09-22T12:15:24.764Z,0.50
2018-09-22T12:17:53.174Z,0.57
2018-09-22T12:20:21.695Z,0.60
2018-09-22T12:22:50.256Z,0.50
2018-09-22T12:25:18.696Z,0.37
2018-09-22T12:27:47.196Z,0.30
2018-09-22T12:30:15.629Z,0.30
2018-09-22T12:32:44.068Z,0.37
2018-09-22T12:35:12.533Z,0.30
2018-09-22T12:37:40.930Z,0.57
2018-09-22T12:40:09.417Z,0.62
2018-09-22T12:42:37.833Z,0.35
2018-09-22T12:45:06.340Z,0.37
2018-09-22T12:47:34.747Z,0.47
2018-09-22T12:50:03.202Z,0.90
2018-09-22T12:52:31.621Z,0.62
2018-09-22T12:55:00.042Z,0.30
2018-09-22T12:57:28.486Z,0.40
2018-09-22T12:59:57.200Z,0.60
2018-09-22T13:02:25.653Z,0.40
2018-09-22T13:04:54.093Z,0.45
2018-09-22T13:07:22.510Z,0.40
2018-09-22T13:09:50.970Z,0.40
2018-09-22T13:12:19.394Z,0.30
2018-09-22T13:14:47.815Z,0.30
2018-09-22T13:17:16.218Z,0.30
2018-09-22T13:19:44.648Z,1.15
2018-09-22T13:22:13.083Z,0.30
2018-09-22T13:24:41.499Z,0.25
2018-09-22T13:27:09.895Z,0.30
2018-09-22T13:29:38.369Z,0.40
2018-09-22T13:32:06.829Z,0.60
2018-09-22T13:34:35.256Z,0.60
2018-09-22T13:37:03.671Z,0.55
2018-09-22T13:39:32.144Z,0.50
2018-09-22T13:42:00.589Z,0.40
2018-09-22T13:44:29.017Z,0.30
2018-09-22T13:46:57.465Z,0.35
2018-09-22T13:49:25.921Z,0.40
2018-09-22T13:51:54.347Z,0.45
2018-09-22T13:54:22.817Z,0.30
2018-09-22T13:56:50.924Z,0.23
2018-09-22T13:59:19.332Z,0.40
2018-09-22T14:01:47.763Z,0.40
2018-09-22T14:04:16.172Z,0.23
2018-09-22T14:06:44.597Z,0.60
2018-09-22T14:09:13.256Z,0.40
2018-09-22T14:11:42.309Z,0.35
2018-09-22T14:14:10.729Z,0.40
2018-09-22T14:16:39.200Z,0.20
2018-09-22T14:19:07.315Z,0.40
2018-09-22T14:21:35.765Z,0.40
2018-09-22T14:24:04.190Z,0.50
2018-09-22T14:26:32.845Z,0.55
2018-09-22T14:29:01.262Z,0.30
2018-09-22T14:31:29.762Z,0.60
2018-09-22T14:33:58.169Z,0.35
2018-09-22T14:36:26.605Z,0.35
2018-09-22T14:38:56.564Z,0.50
2018-09-22T14:41:25.149Z,0.62
2018-09-22T14:43:53.528Z,0.40
2018-09-22T14:46:22.101Z,0.40
2018-09-22T14:48:50.491Z,0.30
2018-09-22T14:51:19.051Z,0.33
2018-09-22T14:53:47.180Z,0.20
2018-09-22T14:56:15.674Z,0.40
2018-09-22T14:58:44.066Z,0.40
2018-09-22T15:01:12.661Z,0.20
2018-09-22T15:03:41.116Z,0.45
2018-09-22T15:06:09.264Z,0.30
2018-09-22T15:08:37.680Z,0.40
2018-09-22T15:11:06.178Z,0.40
2018-09-22T15:13:34.300Z,0.53
2018-09-22T15:16:02.792Z,0.20
2018-09-22T15:18:31.308Z,0.50
2018-09-22T15:20:59.800Z,0.40
2018-09-22T15:23:28.392Z,0.50
2018-09-22T15:25:56.871Z,0.50
2018-09-22T15:28:25.275Z,0.40
2018-09-22T15:30:53.748Z,0.30
2018-09-22T15:33:22.140Z,0.40
2018-09-22T15:35:50.546Z,0.40
2018-09-22T15:38:18.964Z,0.35
2018-09-22T15:40:47.399Z,0.40
2018-09-22T15:43:15.813Z,0.40
2018-09-22T15:45:44.196Z,0.40
2018-09-22T15:48:12.767Z,0.30
2018-09-22T15:50:41.085Z,0.30
2018-09-22T15:53:09.497Z,0.37
2018-09-22T15:55:37.907Z,0.80
2018-09-22T15:58:06.039Z,0.75
2018-09-22T16:00:34.411Z,0.40
2018-09-22T16:03:02.843Z,0.30
2018-09-22T16:05:31.266Z,0.40
2018-09-22T16:07:59.713Z,0.53
2018-09-22T16:10:28.153Z,0.60
2018-09-22T16:12:56.604Z,0.45
2018-09-22T16:15:25.027Z,0.33
2018-09-22T16:17:53.478Z,0.33
2018-09-22T16:20:21.903Z,0.60
2018-09-22T16:22:50.145Z,0.57
2018-09-22T16:25:18.578Z,0.80
2018-09-22T16:27:46.848Z,1.20
2018-09-22T16:30:15.333Z,1.90
2018-09-22T16:32:43.773Z,1.62
2018-09-22T16:35:12.240Z,0.88
2018-09-22T16:37:40.610Z,1.10
2018-09-22T16:40:08.716Z,1.67
2018-09-22T16:42:37.144Z,1.32
2018-09-22T16:45:06.374Z,1.25
2018-09-22T16:47:34.866Z,1.20
2018-09-22T16:50:03.575Z,0.93
2018-09-22T16:52:32.013Z,0.53
2018-09-22T16:55:00.092Z,0.50
2018-09-22T16:57:28.526Z,0.55
2018-09-22T16:59:56.926Z,0.68
2018-09-22T17:02:25.385Z,2.95
2018-09-22T17:04:53.796Z,0.80
2018-09-22T17:07:22.270Z,0.80
2018-09-22T17:09:50.716Z,0.80
2018-09-22T17:12:19.168Z,0.80
2018-09-22T17:14:47.681Z,0.62
2018-09-22T17:17:16.136Z,0.50
2018-09-22T17:19:44.544Z,0.60
2018-09-22T17:22:12.997Z,0.70
2018-09-22T17:24:41.396Z,0.80
2018-09-22T17:27:09.817Z,0.90
2018-09-22T17:29:38.207Z,0.60
2018-09-22T17:32:06.358Z,0.55
2018-09-22T17:34:34.761Z,0.42
2018-09-22T17:37:03.190Z,0.72
2018-09-22T17:39:31.651Z,0.60
2018-09-22T17:42:00.069Z,0.42
2018-09-22T17:44:28.509Z,0.50
2018-09-22T17:46:57.069Z,0.50
2018-09-22T17:49:25.224Z,0.88
2018-09-22T17:51:53.636Z,0.47
2018-09-22T17:54:22.065Z,1.20
2018-09-22T17:56:50.480Z,0.80
2018-09-22T17:59:18.956Z,0.80
2018-09-22T18:01:47.394Z,0.82
2018-09-22T18:04:15.821Z,0.88
2018-09-22T18:06:44.225Z,0.60
2018-09-22T18:09:12.392Z,0.53
2018-09-22T18:11:41.228Z,0.80
2018-09-22T18:14:09.668Z,0.80
2018-09-22T18:16:38.163Z,0.70
2018-09-22T18:19:06.585Z,0.65
2018-09-22T18:21:35.095Z,0.75
2018-09-22T18:24:03.661Z,0.68
2018-09-22T18:26:32.076Z,1.17
2018-09-22T18:29:00.501Z,1.00
2018-09-22T18:31:28.909Z,1.15
2018-09-22T18:33:57.370Z,1.00
2018-09-22T18:36:26.034Z,1.37
2018-09-22T18:38:54.468Z,2.05
2018-09-22T18:41:22.890Z,2.83
2018-09-22T18:43:51.325Z,1.95
2018-09-22T18:46:19.741Z,2.25
2018-09-22T18:48:48.180Z,2.08
2018-09-22T18:51:16.568Z,1.70
2018-09-22T18:53:45.093Z,2.25
2018-09-22T18:56:13.509Z,2.05
2018-09-22T18:58:41.979Z,1.70
2018-09-22T19:01:10.405Z,2.15
2018-09-22T19:03:38.891Z,1.45
2018-09-22T19:06:07.512Z,1.60
2018-09-22T19:08:35.620Z,1.82
2018-09-22T19:11:04.065Z,1.60
2018-09-22T19:13:37.032Z,1.75
2018-09-22T19:16:13.690Z,1.30
2018-09-22T19:18:45.861Z,1.40
2018-09-22T19:21:22.934Z,1.07
2018-09-22T19:23:55.476Z,0.80
2018-09-22T19:26:27.245Z,0.88
2018-09-22T19:29:01.076Z,1.07
2018-09-22T19:31:40.526Z,1.40
2018-09-22T19:34:13.197Z,1.12
2018-09-22T19:36:49.232Z,0.90
2018-09-22T19:39:23.798Z,1.50
2018-09-22T19:41:59.713Z,1.00
2018-09-22T19:44:36.205Z,1.45
2018-09-22T19:47:14.589Z,1.50
2018-09-22T19:49:53.853Z,1.15
2018-09-22T19:52:28.457Z,0.98
2018-09-22T19:54:56.936Z,1.10
2018-09-22T19:57:25.359Z,1.30
2018-09-22T19:59:53.773Z,1.15
2018-09-22T20:02:22.251Z,1.00
2018-09-22T20:04:50.648Z,1.07
2018-09-22T20:07:19.589Z,0.90
2018-09-22T20:09:48.025Z,1.17
2018-09-22T20:12:16.476Z,1.00
2018-09-22T20:14:44.881Z,1.12
2018-09-22T20:17:13.342Z,1.22
2018-09-22T20:19:41.726Z,0.80
2018-09-22T20:22:10.678Z,0.70
2018-09-22T20:24:39.064Z,0.57
2018-09-22T20:27:07.532Z,0.53
2018-09-22T20:29:36.064Z,0.80
2018-09-22T20:32:04.596Z,0.88
2018-09-22T20:34:32.994Z,0.88
2018-09-22T20:37:01.417Z,0.70
2018-09-22T20:39:29.943Z,0.70
2018-09-22T20:41:58.395Z,0.70
2018-09-22T20:44:26.833Z,0.60
2018-09-22T20:46:54.960Z,1.02
2018-09-22T20:49:23.380Z,0.85
2018-09-22T20:51:51.812Z,0.80
2018-09-22T20:54:20.216Z,0.80
2018-09-22T20:56:48.710Z,1.05
2018-09-22T20:59:17.102Z,1.00
2018-09-22T21:01:45.546Z,1.87
2018-09-22T21:04:13.928Z,1.30
2018-09-22T21:06:42.564Z,1.12
2018-09-22T21:09:11.560Z,0.90
2018-09-22T21:11:40.549Z,1.05
2018-09-22T21:14:08.985Z,1.35
2018-09-22T21:16:37.549Z,1.15
2018-09-22T21:19:06.395Z,0.85
2018-09-22T21:21:35.225Z,0.88
2018-09-22T21:24:03.688Z,1.15
2018-09-22T21:26:32.115Z,1.50
2018-09-22T21:29:00.684Z,1.20
2018-09-22T21:31:29.152Z,1.05
2018-09-22T21:33:57.770Z,1.30
2018-09-22T21:36:26.188Z,1.20
2018-09-22T21:38:54.639Z,3.02
2018-09-22T21:41:23.041Z,1.27
2018-09-22T21:43:51.486Z,1.00
2018-09-22T21:46:19.876Z,1.20
2018-09-22T21:48:48.309Z,0.98
2018-09-22T21:51:16.757Z,1.10
2018-09-22T21:53:45.173Z,1.15
2018-09-22T21:56:13.313Z,1.10
2018-09-22T21:58:41.745Z,1.05
2018-09-22T22:01:15.592Z,1.02
2018-09-22T22:03:44.021Z,1.00
2018-09-22T22:06:12.421Z,1.00
2018-09-22T22:08:40.849Z,1.02
2018-09-22T22:11:09.300Z,0.68
2018-09-22T22:13:37.745Z,1.05
2018-09-22T22:16:06.161Z,1.00
2018-09-22T22:18:34.614Z,1.20
2018-09-22T22:21:03.030Z,1.25
2018-09-22T22:23:31.466Z,0.98
2018-09-22T22:25:59.891Z,1.02
2018-09-22T22:28:28.312Z,1.30
2018-09-22T22:30:56.722Z,1.30
2018-09-22T22:33:25.168Z,1.15
2018-09-22T22:35:53.564Z,1.10
2018-09-22T22:38:22.240Z,1.10
2018-09-22T22:40:50.628Z,0.98
2018-09-22T22:43:19.080Z,1.37
2018-09-22T22:45:47.477Z,1.27
2018-09-22T22:48:15.894Z,0.93
2018-09-22T22:50:44.342Z,1.12
2018-09-22T22:53:12.756Z,1.00
2018-09-22T22:55:41.157Z,1.30
2018-09-22T22:58:09.784Z,1.00
2018-09-22T23:00:38.341Z,0.98
2018-09-22T23:03:06.780Z,1.25
2018-09-22T23:05:36.020Z,1.05
2018-09-22T23:08:04.434Z,0.90
2018-09-22T23:10:32.915Z,1.20
2018-09-22T23:13:01.346Z,0.90
2018-09-22T23:15:29.488Z,0.95
2018-09-22T23:17:57.913Z,1.10
2018-09-22T23:20:26.353Z,1.27
2018-09-22T23:22:54.765Z,1.37
2018-09-22T23:25:23.186Z,1.07
2018-09-22T23:27:51.613Z,0.95
2018-09-22T23:30:20.065Z,1.35
2018-09-22T23:32:48.507Z,1.30
2018-09-22T23:35:16.964Z,0.95
2018-09-22T23:37:45.413Z,0.88
2018-09-22T23:40:13.844Z,0.90
2018-09-22T23:42:42.261Z,1.17
2018-09-22T23:45:10.705Z,0.78
2018-09-22T23:47:51.464Z,0.98
2018-09-22T23:50:19.721Z,0.82
2018-09-22T23:52:48.213Z,1.02
2018-09-22T23:55:16.796Z,0.85
2018-09-22T23:57:45.238Z,0.65
